Cruise inventory

FRV Scotia 1389S_1

Cruise summary report

Cruise Info. 
Ship name (ship code)FRV Scotia (749S)
Cruise identifier1389S_1
Cruise period1989-11-30 — 1989-12-11
StatusCompleted
ObjectivesThe objectives of this cruise, off the east coast of Scotland, were:
(1) Water bottle sampling for chemical determinations with supporting CTD profiles.
(2) Sediment sampling by grab and coring.
This work was successfully completed.
Chief scientistGraham Topping (Scottish Office Agriculture and Fisheries Department Aberdeen Marine Laboratory)
Ocean/sea areas 
GeneralNorth Sea
SpecificScottish east coast waters
Measurements 
Physical oceanography 
Water bottle stationsQuantity: number of stations = 43
Description: Knudsen bottles
CTD stationsQuantity: number of profiles = 153
Chemical oceanography 
OxygenQuantity: number of samples = 4
PhosphateQuantity: number of samples = 108
NitrateQuantity: number of samples = 110
Total - NQuantity: number of samples = 12
AmmoniaQuantity: number of samples = 105
SilicateQuantity: number of samples = 128
Contamination 
Trace metals
Chlorinated hydrocarbons
Other dissolved substances
Geology and geophysics 
Grab
Core - soft bottom
Data held at BODC 
Series/Profiles 
153  CTD/STD cast
Density of the water column
Electrical conductivity of the water column
Vertical spatial coordinates
Salinity of the water column
Temperature of the water column
Density of the water column
Electrical conductivity of the water column
Vertical spatial coordinates
Salinity of the water column
Temperature of the water column

BODC idDate/TimeLocationDoc.
4078631989-12-06 11:06 56° 20' 5" N  1° 40' 18" W  View metadata report for BODC series reference number 407863
4078751989-12-06 12:44 56° 19' 58" N  2° 9' 54" W  View metadata report for BODC series reference number 407875
4078871989-12-06 13:52 56° 19' 59" N  2° 30' 4" W  View metadata report for BODC series reference number 407887
4078991989-12-06 14:21 56° 19' 59" N  2° 34' 59" W  View metadata report for BODC series reference number 407899
4079061989-12-06 15:31 56° 22' 44" N  2° 40' 4" W  View metadata report for BODC series reference number 407906
4079181989-12-06 16:07 56° 22' 47" N  2° 35' 25" W  View metadata report for BODC series reference number 407918
4079311989-12-06 16:40 56° 22' 37" N  2° 30' 2" W  View metadata report for BODC series reference number 407931
4079431989-12-06 17:15 56° 25' 0" N  2° 25' 37" W  View metadata report for BODC series reference number 407943
4079551989-12-06 17:44 56° 25' 43" N  2° 35' 1" W  View metadata report for BODC series reference number 407955
4079671989-12-06 18:51 56° 28' 21" N  2° 34' 55" W  View metadata report for BODC series reference number 407967
4079791989-12-06 19:24 56° 28' 18" N  2° 30' 11" W  View metadata report for BODC series reference number 407979
4079801989-12-06 20:17 56° 28' 22" N  2° 20' 2" W  View metadata report for BODC series reference number 407980
4079921989-12-06 20:56 56° 24' 55" N  2° 20' 4" W  View metadata report for BODC series reference number 407992
4080061989-12-06 21:41 56° 20' 0" N  2° 20' 4" W  View metadata report for BODC series reference number 408006
4080181989-12-06 22:40 56° 15' 2" N  2° 29' 57" W  View metadata report for BODC series reference number 408018
4080311989-12-06 23:38 56° 14' 58" N  2° 20' 1" W  View metadata report for BODC series reference number 408031
4080431989-12-07 00:29 56° 14' 55" N  2° 9' 56" W  View metadata report for BODC series reference number 408043
4080551989-12-07 01:18 56° 20' 3" N  2° 10' 0" W  View metadata report for BODC series reference number 408055
4080671989-12-07 15:26 56° 32' 2" N  0° 39' 56" W  View metadata report for BODC series reference number 408067
4080791989-12-07 17:45 56° 31' 59" N  0° 0' 12" W  View metadata report for BODC series reference number 408079
4080801989-12-07 20:56 56° 59' 57" N  0° 0' 0" E  View metadata report for BODC series reference number 408080
4080921989-12-07 22:45 57° 0' 0" N  0° 29' 56" W  View metadata report for BODC series reference number 408092
4081111989-12-08 00:32 57° 0' 2" N  0° 59' 48" W  View metadata report for BODC series reference number 408111
4081231989-12-08 02:20 57° 0' 4" N  1° 30' 1" W  View metadata report for BODC series reference number 408123
4081351989-12-08 03:49 57° 0' 0" N  1° 45' 8" W  View metadata report for BODC series reference number 408135
4081471989-12-08 05:11 56° 59' 58" N  1° 59' 51" W  View metadata report for BODC series reference number 408147
4081591989-12-08 07:26 57° 19' 51" N  1° 45' 2" W  View metadata report for BODC series reference number 408159
4081601989-12-08 08:37 57° 19' 49" N  1° 30' 4" W  View metadata report for BODC series reference number 408160
4081721989-12-08 11:13 57° 19' 55" N  0° 59' 56" W  View metadata report for BODC series reference number 408172
4081841989-12-08 13:00 57° 19' 59" N  0° 29' 42" W  View metadata report for BODC series reference number 408184
4081961989-12-08 14:44 57° 20' 3" N  0° 0' 1" E  View metadata report for BODC series reference number 408196
4082031989-12-08 17:04 57° 40' 1" N  0° 0' 2" W  View metadata report for BODC series reference number 408203
4082151989-12-08 19:37 57° 39' 52" N  0° 30' 7" W  View metadata report for BODC series reference number 408215
4082271989-12-08 22:10 57° 39' 58" N  0° 59' 59" W  View metadata report for BODC series reference number 408227
4082391989-12-09 00:00 57° 40' 3" N  1° 29' 55" W  View metadata report for BODC series reference number 408239
4082401989-12-09 01:29 57° 40' 12" N  1° 43' 29" W  View metadata report for BODC series reference number 408240
4082521989-12-09 04:05 57° 50' 1" N  1° 25' 8" W  View metadata report for BODC series reference number 408252
4082641989-12-09 06:08 58° 0' 0" N  1° 0' 4" W  View metadata report for BODC series reference number 408264
4082761989-12-09 09:24 58° 14' 58" N  0° 30' 3" W  View metadata report for BODC series reference number 408276
4082881989-12-09 12:01 58° 30' 0" N  0° 0' 14" W  View metadata report for BODC series reference number 408288
4083071989-12-09 14:05 58° 30' 2" N  0° 30' 5" W  View metadata report for BODC series reference number 408307
4083191989-12-09 16:09 58° 30' 0" N  1° 0' 1" W  View metadata report for BODC series reference number 408319
4083201989-12-09 18:20 58° 29' 58" N  1° 29' 53" W  View metadata report for BODC series reference number 408320
4083321989-12-09 20:24 58° 29' 58" N  1° 59' 55" W  View metadata report for BODC series reference number 408332
4083441989-12-09 22:23 58° 28' 55" N  2° 30' 1" W  View metadata report for BODC series reference number 408344
4083561989-12-10 00:10 58° 30' 2" N  3° 0' 10" W  View metadata report for BODC series reference number 408356
4083681989-12-10 01:46 58° 20' 3" N  2° 43' 1" W  View metadata report for BODC series reference number 408368
4083811989-12-10 03:27 58° 10' 55" N  3° 2' 22" W  View metadata report for BODC series reference number 408381
4083931989-12-10 04:39 58° 14' 3" N  3° 21' 37" W  View metadata report for BODC series reference number 408393
4084001989-12-10 06:31 57° 59' 56" N  3° 46' 6" W  View metadata report for BODC series reference number 408400
4084121989-12-10 07:26 57° 53' 1" N  3° 35' 3" W  View metadata report for BODC series reference number 408412
4084241989-12-10 10:07 57° 45' 13" N  3° 20' 26" W  View metadata report for BODC series reference number 408424
4084361989-12-10 12:16 57° 55' 3" N  3° 14' 32" W  View metadata report for BODC series reference number 408436
4084481989-12-10 14:56 57° 55' 0" N  3° 0' 8" W  View metadata report for BODC series reference number 408448
4084611989-12-10 16:22 57° 44' 30" N  2° 49' 9" W  View metadata report for BODC series reference number 408461
4084731989-12-10 17:49 57° 55' 1" N  2° 30' 2" W  View metadata report for BODC series reference number 408473
4067921989-11-30 22:43 55° 30' 1" N  1° 35' 23" W  View metadata report for BODC series reference number 406792
4068111989-11-30 23:38 55° 30' 7" N  1° 26' 26" W  View metadata report for BODC series reference number 406811
4068231989-12-01 00:33 55° 30' 4" N  1° 17' 32" W  View metadata report for BODC series reference number 406823
4068351989-12-01 01:31 55° 30' 1" N  1° 8' 42" W  View metadata report for BODC series reference number 406835
4068471989-12-01 03:19 55° 30' 6" N  0° 43' 5" W  View metadata report for BODC series reference number 406847
4068591989-12-01 04:53 55° 29' 57" N  0° 27' 53" W  View metadata report for BODC series reference number 406859
4068601989-12-01 06:36 55° 30' 0" N  0° 0' 6" W  View metadata report for BODC series reference number 406860
4068721989-12-01 08:12 55° 45' 1" N  0° 0' 4" W  View metadata report for BODC series reference number 406872
4068841989-12-01 10:06 55° 45' 4" N  0° 27' 27" W  View metadata report for BODC series reference number 406884
4068961989-12-01 11:27 55° 45' 4" N  0° 43' 0" W  View metadata report for BODC series reference number 406896
4069031989-12-01 12:46 55° 45' 0" N  1° 0' 2" W  View metadata report for BODC series reference number 406903
4069151989-12-01 13:40 55° 44' 58" N  1° 10' 29" W  View metadata report for BODC series reference number 406915
4069271989-12-01 14:36 55° 44' 57" N  1° 22' 4" W  View metadata report for BODC series reference number 406927
4069391989-12-01 15:24 55° 44' 55" N  1° 29' 56" W  View metadata report for BODC series reference number 406939
4069401989-12-01 16:37 55° 49' 56" N  1° 43' 46" W  View metadata report for BODC series reference number 406940
4069521989-12-02 17:20 56° 4' 25" N  2° 7' 0" W  View metadata report for BODC series reference number 406952
4069641989-12-02 17:49 56° 3' 23" N  2° 9' 3" W  View metadata report for BODC series reference number 406964
4069761989-12-02 18:06 56° 2' 26" N  2° 10' 11" W  View metadata report for BODC series reference number 406976
4069881989-12-02 18:23 56° 1' 30" N  2° 12' 56" W  View metadata report for BODC series reference number 406988
4070031989-12-02 18:38 56° 0' 48" N  2° 15' 5" W  View metadata report for BODC series reference number 407003
4070151989-12-02 18:55 55° 59' 37" N  2° 17' 7" W  View metadata report for BODC series reference number 407015
4070271989-12-02 19:11 55° 58' 40" N  2° 19' 7" W  View metadata report for BODC series reference number 407027
4070391989-12-03 06:30 56° 0' 46" N  3° 5' 57" W  View metadata report for BODC series reference number 407039
4070401989-12-03 07:21 56° 2' 37" N  3° 5' 51" W  View metadata report for BODC series reference number 407040
4070521989-12-03 10:57 56° 3' 58" N  2° 59' 55" W  View metadata report for BODC series reference number 407052
4070641989-12-03 12:03 56° 6' 0" N  3° 0' 7" W  View metadata report for BODC series reference number 407064
4070761989-12-03 12:49 56° 7' 59" N  3° 0' 7" W  View metadata report for BODC series reference number 407076
4070881989-12-03 14:18 56° 10' 9" N  2° 49' 55" W  View metadata report for BODC series reference number 407088
4071071989-12-03 14:38 56° 9' 45" N  2° 49' 58" W  View metadata report for BODC series reference number 407107
4071191989-12-03 15:04 56° 9' 9" N  2° 49' 55" W  View metadata report for BODC series reference number 407119
4071201989-12-03 15:45 56° 8' 22" N  2° 49' 56" W  View metadata report for BODC series reference number 407120
4071321989-12-03 16:11 56° 7' 1" N  2° 50' 4" W  View metadata report for BODC series reference number 407132
4071441989-12-03 17:30 56° 5' 26" N  2° 50' 7" W  View metadata report for BODC series reference number 407144
4071561989-12-03 18:30 56° 4' 39" N  2° 49' 56" W  View metadata report for BODC series reference number 407156
4071681989-12-03 20:10 56° 2' 24" N  2° 34' 54" W  View metadata report for BODC series reference number 407168
4071811989-12-03 20:42 56° 3' 59" N  2° 34' 52" W  View metadata report for BODC series reference number 407181
4071931989-12-03 21:40 56° 5' 56" N  2° 34' 57" W  View metadata report for BODC series reference number 407193
4072001989-12-03 22:37 56° 8' 3" N  2° 35' 2" W  View metadata report for BODC series reference number 407200
4072121989-12-03 23:28 56° 10' 6" N  2° 34' 58" W  View metadata report for BODC series reference number 407212
4072241989-12-04 00:29 56° 11' 58" N  2° 34' 59" W  View metadata report for BODC series reference number 407224
4072361989-12-04 01:06 56° 13' 58" N  2° 34' 59" W  View metadata report for BODC series reference number 407236
4072481989-12-04 01:32 56° 15' 1" N  2° 34' 57" W  View metadata report for BODC series reference number 407248
4072611989-12-04 04:38 55° 56' 21" N  2° 12' 47" W  View metadata report for BODC series reference number 407261
4072731989-12-04 05:37 55° 58' 18" N  2° 11' 4" W  View metadata report for BODC series reference number 407273
4072851989-12-04 06:04 56° 0' 51" N  2° 10' 1" W  View metadata report for BODC series reference number 407285
4072971989-12-04 06:53 56° 2' 50" N  2° 8' 55" W  View metadata report for BODC series reference number 407297
4073041989-12-04 07:28 56° 5' 2" N  2° 7' 56" W  View metadata report for BODC series reference number 407304
4073161989-12-04 08:24 56° 3' 30" N  2° 11' 21" W  View metadata report for BODC series reference number 407316
4073281989-12-04 09:00 56° 2' 3" N  2° 14' 33" W  View metadata report for BODC series reference number 407328
4073411989-12-04 09:35 56° 0' 35" N  2° 17' 46" W  View metadata report for BODC series reference number 407341
4073531989-12-04 10:00 55° 59' 39" N  2° 19' 50" W  View metadata report for BODC series reference number 407353
4073651989-12-04 10:30 55° 58' 33" N  2° 21' 54" W  View metadata report for BODC series reference number 407365
4073771989-12-04 11:00 56° 0' 10" N  2° 21' 26" W  View metadata report for BODC series reference number 407377
4073891989-12-04 11:26 56° 1' 32" N  2° 20' 51" W  View metadata report for BODC series reference number 407389
4073901989-12-04 11:51 56° 3' 4" N  2° 20' 30" W  View metadata report for BODC series reference number 407390
4074081989-12-04 12:17 56° 4' 31" N  2° 19' 42" W  View metadata report for BODC series reference number 407408
4074211989-12-04 12:56 56° 6' 33" N  2° 19' 18" W  View metadata report for BODC series reference number 407421
4074331989-12-04 13:19 56° 7' 37" N  2° 18' 38" W  View metadata report for BODC series reference number 407433
4074451989-12-04 14:39 56° 6' 0" N  2° 20' 39" W  View metadata report for BODC series reference number 407445
4074571989-12-04 15:07 56° 5' 21" N  2° 22' 25" W  View metadata report for BODC series reference number 407457
4074691989-12-04 15:33 56° 4' 13" N  2° 24' 16" W  View metadata report for BODC series reference number 407469
4074701989-12-04 15:55 56° 3' 19" N  2° 25' 50" W  View metadata report for BODC series reference number 407470
4074821989-12-04 16:13 56° 2' 19" N  2° 27' 22" W  View metadata report for BODC series reference number 407482
4074941989-12-04 17:36 56° 1' 36" N  2° 28' 50" W  View metadata report for BODC series reference number 407494
4075011989-12-04 17:54 56° 0' 44" N  2° 30' 11" W  View metadata report for BODC series reference number 407501
4075131989-12-04 18:28 55° 58' 30" N  2° 21' 48" W  View metadata report for BODC series reference number 407513
4075251989-12-04 19:04 55° 56' 22" N  2° 11' 49" W  View metadata report for BODC series reference number 407525
4075371989-12-04 19:31 55° 54' 29" N  2° 5' 26" W  View metadata report for BODC series reference number 407537
4075491989-12-04 20:00 55° 51' 20" N  1° 59' 23" W  View metadata report for BODC series reference number 407549
4075501989-12-04 20:40 55° 48' 13" N  1° 53' 57" W  View metadata report for BODC series reference number 407550
4075621989-12-04 21:23 55° 45' 2" N  1° 46' 59" W  View metadata report for BODC series reference number 407562
4075741989-12-04 22:30 55° 50' 44" N  1° 39' 30" W  View metadata report for BODC series reference number 407574
4075861989-12-05 08:30 56° 5' 50" N  2° 5' 57" W  View metadata report for BODC series reference number 407586
4075981989-12-05 09:14 56° 6' 34" N  2° 8' 27" W  View metadata report for BODC series reference number 407598
4076051989-12-05 09:52 56° 5' 15" N  2° 9' 55" W  View metadata report for BODC series reference number 407605
4076171989-12-05 10:21 56° 4' 0" N  2° 11' 25" W  View metadata report for BODC series reference number 407617
4076291989-12-05 10:55 56° 3' 11" N  2° 8' 56" W  View metadata report for BODC series reference number 407629
4076301989-12-05 11:24 56° 4' 30" N  2° 7' 18" W  View metadata report for BODC series reference number 407630
4076421989-12-05 11:58 56° 5' 6" N  2° 3' 45" W  View metadata report for BODC series reference number 407642
4076541989-12-05 12:29 56° 3' 43" N  2° 5' 10" W  View metadata report for BODC series reference number 407654
4076661989-12-05 15:36 56° 5' 23" N  2° 8' 45" W  View metadata report for BODC series reference number 407666
4076781989-12-05 16:23 56° 4' 31" N  2° 7' 7" W  View metadata report for BODC series reference number 407678
4076911989-12-05 16:55 56° 3' 41" N  2° 5' 9" W  View metadata report for BODC series reference number 407691
4077091989-12-05 17:27 56° 5' 4" N  2° 3' 40" W  View metadata report for BODC series reference number 407709
4077101989-12-05 17:55 56° 5' 51" N  2° 6' 9" W  View metadata report for BODC series reference number 407710
4077221989-12-05 18:24 56° 6' 34" N  2° 8' 33" W  View metadata report for BODC series reference number 407722
4077341989-12-05 18:50 56° 5' 14" N  2° 9' 56" W  View metadata report for BODC series reference number 407734
4077461989-12-05 19:15 56° 3' 58" N  2° 11' 20" W  View metadata report for BODC series reference number 407746
4077581989-12-05 19:44 56° 3' 7" N  2° 8' 54" W  View metadata report for BODC series reference number 407758
4077711989-12-05 20:30 55° 59' 58" N  2° 9' 59" W  View metadata report for BODC series reference number 407771
4077831989-12-05 22:11 56° 0' 0" N  1° 39' 51" W  View metadata report for BODC series reference number 407783
4077951989-12-05 23:47 55° 59' 58" N  1° 10' 1" W  View metadata report for BODC series reference number 407795
4078021989-12-06 01:40 55° 59' 56" N  0° 35' 5" W  View metadata report for BODC series reference number 407802
4078141989-12-06 03:35 56° 0' 0" N  0° 0' 1" W  View metadata report for BODC series reference number 407814
4078261989-12-06 05:39 56° 19' 53" N  0° 0' 7" W  View metadata report for BODC series reference number 407826
4078381989-12-06 07:27 56° 19' 55" N  0° 35' 2" W  View metadata report for BODC series reference number 407838
4078511989-12-06 09:24 56° 20' 26" N  1° 9' 51" W  View metadata report for BODC series reference number 407851